Time;durP1;ratioP1;P1;durP2;ratioP2;P2;SDS_P1;SDS_P2;PMS_P1;PMS_P2;Temp;Humidity;BMP_temperature;BMP_pressure;BME280_temperature;BME280_humidity;BME280_pressure;Samples;Min_cycle;Max_cycle;Signal;HPM_P1;HPM_P2
2022/05/23 00:00:29;;;;;;;6.32;2.40;;;;;;;;;;5058297;28;20051;-68
2022/05/23 00:02:55;;;;;;;4.70;2.35;;;;;;;;;;5073867;28;20049;-68
2022/05/23 00:05:22;;;;;;;7.15;2.35;;;;;;;;;;5055260;28;20080;-69
2022/05/23 00:07:48;;;;;;;6.60;2.40;;;;;;;;;;5060966;28;20572;-69
2022/05/23 00:10:17;;;;;;;8.68;2.72;;;;;;;;;;5049988;28;20048;-68
2022/05/23 00:12:43;;;;;;;5.72;2.60;;;;;;;;;;5069108;28;20173;-69
2022/05/23 00:15:11;;;;;;;7.05;2.50;;;;;;;;;;5058194;28;20685;-68
2022/05/23 00:17:37;;;;;;;10.93;2.70;;;;;;;;;;5070266;28;20040;-69
2022/05/23 00:20:06;;;;;;;6.72;2.40;;;;;;;;;;5060915;28;20579;-69
2022/05/23 00:22:32;;;;;;;;;;;;;;;;;;5052154;28;20052;-68
2022/05/23 00:24:58;;;;;;;8.00;2.55;;;;;;;;;;5067124;28;20342;-69
2022/05/23 00:27:25;;;;;;;6.80;2.70;;;;;;;;;;5075272;28;20707;-68
2022/05/23 00:29:52;;;;;;;4.35;2.30;;;;;;;;;;5081174;28;20059;-68
2022/05/23 00:35:19;;;;;;;6.95;2.83;;;;;;;;;;5053959;28;20045;-69
2022/05/23 00:37:50;;;;;;;7.25;2.78;;;;;;;;;;5049667;28;20110;-68
2022/05/23 00:40:19;;;;;;;7.47;2.87;;;;;;;;;;5053254;28;20049;-68
2022/05/23 00:45:31;;;;;;;6.22;2.67;;;;;;;;;;5053803;28;20072;-69
2022/05/23 00:47:57;;;;;;;5.70;2.40;;;;;;;;;;5057082;28;20048;-67
2022/05/23 00:50:24;;;;;;;6.72;2.38;;;;;;;;;;5051049;28;20079;-68
2022/05/23 00:52:51;;;;;;;7.88;3.10;;;;;;;;;;5066610;28;20056;-68
2022/05/23 00:55:20;;;;;;;4.00;2.13;;;;;;;;;;5062207;28;20062;-68
2022/05/23 00:57:49;;;;;;;7.88;2.95;;;;;;;;;;5059185;28;20174;-68
2022/05/23 01:00:16;;;;;;;6.90;2.53;;;;;;;;;;5060974;28;20505;-70
2022/05/23 01:02:45;;;;;;;6.45;2.20;;;;;;;;;;5048771;28;20037;-68
2022/05/23 01:05:12;;;;;;;4.85;2.10;;;;;;;;;;5041342;28;20805;-68
2022/05/23 01:07:38;;;;;;;6.95;2.25;;;;;;;;;;5055054;28;20048;-67
2022/05/23 01:10:05;;;;;;;5.82;2.25;;;;;;;;;;5060857;28;20136;-68
2022/05/23 01:12:32;;;;;;;6.35;2.55;;;;;;;;;;5067511;28;20055;-68
2022/05/23 01:14:59;;;;;;;8.27;2.63;;;;;;;;;;5056428;28;20420;-68
2022/05/23 01:17:27;;;;;;;5.72;2.47;;;;;;;;;;5055990;28;20389;-69
2022/05/23 01:19:54;;;;;;;9.93;3.30;;;;;;;;;;5053578;28;20833;-68
2022/05/23 01:22:23;;;;;;;7.10;3.67;;;;;;;;;;5068693;28;20051;-67
2022/05/23 01:25:08;;;;;;;8.70;2.88;;;;;;;;;;5053838;28;20052;-68
2022/05/23 01:27:34;;;;;;;11.27;3.30;;;;;;;;;;5060886;28;20090;-68
2022/05/23 01:30:01;;;;;;;8.02;2.67;;;;;;;;;;5061040;28;20139;-68
2022/05/23 01:32:27;;;;;;;7.43;3.05;;;;;;;;;;5055094;28;20503;-67
2022/05/23 01:34:53;;;;;;;7.65;2.58;;;;;;;;;;5055990;28;20059;-68
2022/05/23 01:37:20;;;;;;;6.28;2.58;;;;;;;;;;5054068;28;20044;-68
2022/05/23 01:39:46;;;;;;;6.30;2.60;;;;;;;;;;5071544;28;20060;-68
2022/05/23 01:42:13;;;;;;;8.38;2.80;;;;;;;;;;5035645;28;20826;-68
2022/05/23 01:44:39;;;;;;;8.20;2.80;;;;;;;;;;5060568;28;20147;-68
2022/05/23 01:47:16;;;;;;;6.85;3.10;;;;;;;;;;5033872;28;20048;-68
2022/05/23 01:49:42;;;;;;;8.93;3.13;;;;;;;;;;5059013;28;20572;-68
2022/05/23 01:52:10;;;;;;;5.70;2.33;;;;;;;;;;5059913;28;20136;-68
2022/05/23 01:54:37;;;;;;;5.85;2.80;;;;;;;;;;5053362;28;20056;-69
2022/05/23 01:57:04;;;;;;;7.78;3.13;;;;;;;;;;5055387;28;20048;-68
2022/05/23 02:02:16;;;;;;;7.82;3.25;;;;;;;;;;5050174;28;20088;-68
2022/05/23 02:04:42;;;;;;;6.65;2.80;;;;;;;;;;5057142;28;20048;-68
2022/05/23 02:07:09;;;;;;;8.80;3.53;;;;;;;;;;5063855;28;20050;-68
2022/05/23 02:09:36;;;;;;;7.97;2.90;;;;;;;;;;5062665;28;20135;-68
2022/05/23 02:12:02;;;;;;;5.78;3.10;;;;;;;;;;5052411;28;20327;-68
2022/05/23 02:14:28;;;;;;;8.50;3.08;;;;;;;;;;5057947;28;20048;-68
2022/05/23 02:16:55;;;;;;;10.55;3.30;;;;;;;;;;5057419;28;20423;-68
2022/05/23 02:19:21;;;;;;;8.77;2.85;;;;;;;;;;5075359;28;20794;-68
2022/05/23 02:21:47;;;;;;;8.93;3.17;;;;;;;;;;5055963;28;21118;-68
2022/05/23 02:24:14;;;;;;;10.05;3.20;;;;;;;;;;5073588;28;20127;-68
2022/05/23 02:26:40;;;;;;;10.23;3.85;;;;;;;;;;5057496;28;20045;-68
2022/05/23 02:29:08;;;;;;;8.50;3.65;;;;;;;;;;5056299;28;20048;-69
2022/05/23 02:31:34;;;;;;;10.82;3.92;;;;;;;;;;5062562;28;20086;-68
2022/05/23 02:34:01;;;;;;;9.55;4.25;;;;;;;;;;5055458;28;20135;-68
2022/05/23 02:36:28;;;;;;;7.57;3.65;;;;;;;;;;5046620;28;20053;-68
2022/05/23 02:38:54;;;;;;;6.22;4.07;;;;;;;;;;5032714;28;20175;-68
2022/05/23 02:41:22;;;;;;;9.18;4.90;;;;;;;;;;5035942;28;20179;-68
2022/05/23 02:43:48;;;;;;;9.07;4.43;;;;;;;;;;5048706;28;20563;-68
2022/05/23 02:46:15;;;;;;;9.75;3.90;;;;;;;;;;5053981;28;20064;-68
2022/05/23 02:48:46;;;;;;;7.00;3.50;;;;;;;;;;5037430;28;20132;-68
2022/05/23 02:51:13;;;;;;;10.13;3.83;;;;;;;;;;5037134;28;20483;-68
2022/05/23 02:53:39;;;;;;;6.22;3.40;;;;;;;;;;5047580;28;20147;-68
2022/05/23 02:56:05;;;;;;;6.28;3.42;;;;;;;;;;5052006;28;20135;-68
2022/05/23 02:58:32;;;;;;;5.20;3.30;;;;;;;;;;5062071;28;20048;-68
2022/05/23 03:00:58;;;;;;;7.40;3.50;;;;;;;;;;5063320;28;20788;-69
2022/05/23 03:03:25;;;;;;;6.00;3.50;;;;;;;;;;5057281;28;20075;-68
2022/05/23 03:05:51;;;;;;;10.73;4.47;;;;;;;;;;5055273;28;20040;-68
2022/05/23 03:08:19;;;;;;;9.05;4.20;;;;;;;;;;5052828;28;20052;-68
2022/05/23 03:10:46;;;;;;;7.47;3.58;;;;;;;;;;5057275;28;20049;-68
2022/05/23 03:13:13;;;;;;;6.93;3.28;;;;;;;;;;5054328;28;20048;-68
2022/05/23 03:15:39;;;;;;;7.30;3.00;;;;;;;;;;5060712;28;20048;-68
2022/05/23 03:18:06;;;;;;;8.07;3.38;;;;;;;;;;5062384;28;20053;-68
2022/05/23 03:20:32;;;;;;;7.75;3.58;;;;;;;;;;5054203;28;20799;-68
2022/05/23 03:28:31;;;;;;;6.05;3.20;;;;;;;;;;5061245;28;20040;-68
2022/05/23 03:30:58;;;;;;;14.57;4.05;;;;;;;;;;5056289;28;20159;-68
2022/05/23 03:33:24;;;;;;;7.72;3.95;;;;;;;;;;5060929;28;20708;-68
2022/05/23 03:35:50;;;;;;;7.82;3.55;;;;;;;;;;5044674;28;20076;-68
2022/05/23 03:38:17;;;;;;;7.28;3.85;;;;;;;;;;5058907;28;20644;-68
2022/05/23 03:40:44;;;;;;;11.10;4.03;;;;;;;;;;5059324;28;20079;-68
2022/05/23 03:43:10;;;;;;;11.40;4.38;;;;;;;;;;5068222;28;20044;-68
2022/05/23 03:45:37;;;;;;;7.95;4.45;;;;;;;;;;5061174;28;20056;-67
2022/05/23 03:48:03;;;;;;;8.65;4.85;;;;;;;;;;5051766;28;20066;-68
2022/05/23 03:50:31;;;;;;;12.10;4.15;;;;;;;;;;5055252;28;20130;-68
2022/05/23 03:52:57;;;;;;;9.15;4.50;;;;;;;;;;5055021;28;20048;-68
2022/05/23 03:55:24;;;;;;;9.40;4.68;;;;;;;;;;5060578;28;20048;-68
2022/05/23 03:57:50;;;;;;;7.60;4.15;;;;;;;;;;5060890;28;20400;-68
2022/05/23 04:00:18;;;;;;;8.43;5.10;;;;;;;;;;5054215;28;20063;-68
2022/05/23 04:02:44;;;;;;;10.65;5.45;;;;;;;;;;5062479;28;20054;-68
2022/05/23 04:05:12;;;;;;;9.48;5.80;;;;;;;;;;5057099;28;20052;-67
2022/05/23 04:07:39;;;;;;;10.35;6.40;;;;;;;;;;5060959;28;20208;-67
2022/05/23 04:10:06;;;;;;;14.77;6.57;;;;;;;;;;5055147;28;20471;-68
2022/05/23 04:12:33;;;;;;;12.10;6.50;;;;;;;;;;5060751;28;20159;-68
2022/05/23 04:14:59;;;;;;;13.63;6.40;;;;;;;;;;5073338;28;20559;-67
2022/05/23 04:17:25;;;;;;;12.73;6.50;;;;;;;;;;5048774;28;20040;-67
2022/05/23 04:19:52;;;;;;;13.05;6.75;;;;;;;;;;5060780;28;20143;-68
2022/05/23 04:22:18;;;;;;;11.20;6.13;;;;;;;;;;5054624;28;20131;-67
2022/05/23 04:24:44;;;;;;;11.57;7.10;;;;;;;;;;5073073;28;20052;-67
2022/05/23 04:27:17;;;;;;;12.18;7.00;;;;;;;;;;5054308;28;20075;-67
2022/05/23 04:29:43;;;;;;;12.48;6.55;;;;;;;;;;5056682;28;20409;-67
2022/05/23 04:35:13;;;;;;;15.68;6.72;;;;;;;;;;5046680;28;20041;-68
2022/05/23 04:37:44;;;;;;;14.00;6.53;;;;;;;;;;5062657;28;20046;-67
2022/05/23 04:40:12;;;;;;;11.18;6.55;;;;;;;;;;5056141;28;20041;-67
2022/05/23 04:42:39;;;;;;;15.00;8.05;;;;;;;;;;5062376;28;20475;-67
2022/05/23 04:45:06;;;;;;;10.60;7.28;;;;;;;;;;5048012;28;20102;-67
2022/05/23 04:50:17;;;;;;;10.98;5.80;;;;;;;;;;5055141;28;20791;-67
2022/05/23 04:52:44;;;;;;;12.35;5.32;;;;;;;;;;5060538;28;20511;-69
2022/05/23 04:55:10;;;;;;;11.45;5.82;;;;;;;;;;5060843;28;20441;-67
2022/05/23 04:57:36;;;;;;;9.88;5.60;;;;;;;;;;5049071;28;20053;-67
2022/05/23 05:00:06;;;;;;;9.35;5.57;;;;;;;;;;5056110;28;20136;-68
2022/05/23 05:02:37;;;;;;;8.55;5.45;;;;;;;;;;5049357;28;20733;-68
2022/05/23 05:05:04;;;;;;;11.45;6.10;;;;;;;;;;5060424;28;20461;-68
2022/05/23 05:07:48;;;;;;;9.00;5.40;;;;;;;;;;5074444;28;20042;-68
2022/05/23 05:10:14;;;;;;;8.52;5.72;;;;;;;;;;5063305;28;20680;-68
2022/05/23 05:12:41;;;;;;;12.68;6.07;;;;;;;;;;5074065;28;20766;-67
2022/05/23 05:15:08;;;;;;;9.13;5.60;;;;;;;;;;5056959;28;20052;-68
2022/05/23 05:17:34;;;;;;;8.88;5.47;;;;;;;;;;5059773;28;20415;-67
2022/05/23 05:20:00;;;;;;;11.73;6.13;;;;;;;;;;5054159;28;20050;-68
2022/05/23 05:22:27;;;;;;;9.25;5.38;;;;;;;;;;5059594;28;20044;-68
2022/05/23 05:24:53;;;;;;;10.95;5.72;;;;;;;;;;5053004;28;20663;-68
2022/05/23 05:27:20;;;;;;;9.05;6.03;;;;;;;;;;5053325;28;20171;-68
2022/05/23 05:29:46;;;;;;;11.15;5.82;;;;;;;;;;5058479;28;20088;-68
2022/05/23 05:32:12;;;;;;;9.27;5.35;;;;;;;;;;5052398;28;20040;-67
2022/05/23 05:34:45;;;;;;;11.27;5.80;;;;;;;;;;5058230;28;20054;-67
2022/05/23 05:37:14;;;;;;;8.88;5.43;;;;;;;;;;5034606;28;20048;-68
2022/05/23 05:39:41;;;;;;;10.05;5.95;;;;;;;;;;5039260;28;20579;-68
2022/05/23 05:42:23;;;;;;;6.15;4.95;;;;;;;;;;5050400;28;20054;-68
2022/05/23 05:44:52;;;;;;;8.07;5.78;;;;;;;;;;5057769;28;20057;-68
2022/05/23 05:47:22;;;;;;;10.18;5.78;;;;;;;;;;5061981;28;20122;-68
2022/05/23 05:49:53;;;;;;;11.75;5.38;;;;;;;;;;5067136;28;20056;-69
2022/05/23 05:52:21;;;;;;;10.05;5.82;;;;;;;;;;5062376;28;20049;-68
2022/05/23 05:54:48;;;;;;;10.43;6.22;;;;;;;;;;5055125;28;20051;-68
2022/05/23 05:57:14;;;;;;;8.80;5.32;;;;;;;;;;5062835;28;20848;-68
2022/05/23 05:59:41;;;;;;;11.10;6.25;;;;;;;;;;5058496;28;20098;-69
2022/05/23 06:02:08;;;;;;;12.15;6.63;;;;;;;;;;5063933;28;20056;-66
2022/05/23 06:04:35;;;;;;;9.95;5.30;;;;;;;;;;5063379;28;20102;-67
2022/05/23 06:12:32;;;;;;;10.23;6.10;;;;;;;;;;5057665;28;20556;-67
2022/05/23 06:14:59;;;;;;;10.35;5.82;;;;;;;;;;5070841;28;20134;-69
2022/05/23 06:17:25;;;;;;;9.15;6.38;;;;;;;;;;5062683;28;20439;-67
2022/05/23 06:19:52;;;;;;;16.23;6.82;;;;;;;;;;5070505;28;20055;-67
2022/05/23 06:22:18;;;;;;;11.70;6.75;;;;;;;;;;5057605;28;20048;-68
2022/05/23 06:24:44;;;;;;;9.73;6.88;;;;;;;;;;5064408;28;20048;-67
2022/05/23 06:27:11;;;;;;;12.13;6.68;;;;;;;;;;5075310;28;20083;-69
2022/05/23 06:29:38;;;;;;;10.13;6.30;;;;;;;;;;5056400;28;20056;-68
2022/05/23 06:32:05;;;;;;;12.13;5.60;;;;;;;;;;5075302;28;20480;-69
2022/05/23 06:34:31;;;;;;;18.02;6.75;;;;;;;;;;5017962;28;20622;-67
2022/05/23 06:36:59;;;;;;;11.13;6.22;;;;;;;;;;5061344;28;20036;-66
2022/05/23 06:39:26;;;;;;;10.60;6.70;;;;;;;;;;5064996;28;21012;-69
2022/05/23 06:41:52;;;;;;;12.55;7.03;;;;;;;;;;5060858;28;20055;-67
2022/05/23 06:44:18;;;;;;;12.50;5.03;;;;;;;;;;5062508;28;20048;-67
2022/05/23 06:46:46;;;;;;;10.00;7.07;;;;;;;;;;5057099;28;20135;-67
2022/05/23 06:49:13;;;;;;;15.90;5.97;;;;;;;;;;5057681;28;20048;-67
2022/05/23 06:51:48;;;;;;;15.13;5.95;;;;;;;;;;5051127;28;20049;-68
2022/05/23 06:54:18;;;;;;;14.52;5.90;;;;;;;;;;5061773;28;20049;-67
2022/05/23 06:56:44;;;;;;;9.73;5.88;;;;;;;;;;5055819;28;20131;-67
2022/05/23 06:59:11;;;;;;;9.48;6.20;;;;;;;;;;5071982;28;20048;-67
2022/05/23 07:01:37;;;;;;;17.40;6.30;;;;;;;;;;5059760;28;20132;-67
2022/05/23 07:04:04;;;;;;;10.55;5.93;;;;;;;;;;5033217;28;20048;-67
2022/05/23 07:14:51;;;;;;;13.98;7.03;;;;;;;;;;5061913;28;20104;-67
2022/05/23 07:17:18;;;;;;;13.98;6.85;;;;;;;;;;5062597;28;20049;-67
2022/05/23 07:19:44;;;;;;;13.20;6.70;;;;;;;;;;5034619;28;20818;-67
2022/05/23 07:22:12;;;;;;;11.35;6.03;;;;;;;;;;5062426;28;20514;-67
2022/05/23 07:24:38;;;;;;;15.32;6.63;;;;;;;;;;5061065;28;20131;-67
2022/05/23 07:27:04;;;;;;;12.68;6.80;;;;;;;;;;5057593;28;20854;-67
2022/05/23 07:29:31;;;;;;;13.00;5.57;;;;;;;;;;5059096;28;20052;-67
2022/05/23 07:31:58;;;;;;;10.13;5.75;;;;;;;;;;5049388;28;20056;-67
2022/05/23 07:34:25;;;;;;;12.20;5.87;;;;;;;;;;5061304;28;20076;-67
2022/05/23 07:36:51;;;;;;;12.40;5.88;;;;;;;;;;5044195;28;20512;-68
2022/05/23 07:39:18;;;;;;;14.20;5.63;;;;;;;;;;5061960;28;20048;-68
2022/05/23 07:41:44;;;;;;;9.45;5.53;;;;;;;;;;5053788;28;20059;-67
2022/05/23 07:44:11;;;;;;;8.52;4.85;;;;;;;;;;5056858;28;20656;-68
2022/05/23 07:46:40;;;;;;;7.53;4.00;;;;;;;;;;5056428;28;20132;-68
2022/05/23 07:49:06;;;;;;;8.50;5.07;;;;;;;;;;5057702;28;20044;-68
2022/05/23 07:51:33;;;;;;;10.38;5.65;;;;;;;;;;5061723;28;20048;-69
2022/05/23 08:02:16;;;;;;;13.45;5.38;;;;;;;;;;5060828;28;20053;-67
2022/05/23 08:04:43;;;;;;;8.57;4.65;;;;;;;;;;5055498;28;20464;-67
2022/05/23 08:07:10;;;;;;;11.88;5.10;;;;;;;;;;5060701;28;20045;-68
2022/05/23 08:09:36;;;;;;;8.52;4.57;;;;;;;;;;5042429;28;20058;-68
2022/05/23 08:12:04;;;;;;;9.10;4.63;;;;;;;;;;5050917;28;20060;-68
2022/05/23 08:14:31;;;;;;;8.40;5.18;;;;;;;;;;5059321;28;20052;-68
2022/05/23 08:16:57;;;;;;;12.88;5.18;;;;;;;;;;5055778;28;20061;-68
2022/05/23 08:19:24;;;;;;;8.32;4.78;;;;;;;;;;5061923;28;20052;-68
2022/05/23 08:21:52;;;;;;;13.15;5.13;;;;;;;;;;5055208;28;20871;-68
2022/05/23 08:24:18;;;;;;;;;;;;;;;;;;5056799;28;20052;-68
2022/05/23 08:26:45;;;;;;;11.93;4.55;;;;;;;;;;5056458;28;19924;-68
2022/05/23 08:29:11;;;;;;;12.73;4.47;;;;;;;;;;5037261;28;20056;-68
2022/05/23 08:31:44;;;;;;;11.50;5.80;;;;;;;;;;5060447;28;20052;-68
2022/05/23 08:34:11;;;;;;;9.65;5.03;;;;;;;;;;5054918;28;20059;-68
2022/05/23 08:36:37;;;;;;;7.35;4.65;;;;;;;;;;5043271;28;20545;-69
2022/05/23 08:39:04;;;;;;;14.68;5.57;;;;;;;;;;5030491;28;20057;-68
2022/05/23 08:41:35;;;;;;;7.20;4.20;;;;;;;;;;5050718;28;20059;-68
2022/05/23 08:44:20;;;;;;;7.68;5.03;;;;;;;;;;5060552;28;20040;-68
2022/05/23 08:46:46;;;;;;;10.27;4.95;;;;;;;;;;5054630;28;20044;-68
2022/05/23 08:49:32;;;;;;;12.18;4.97;;;;;;;;;;5060993;28;20049;-69
2022/05/23 08:52:13;;;;;;;9.68;4.97;;;;;;;;;;5037710;28;20092;-68
2022/05/23 08:54:47;;;;;;;10.13;4.80;;;;;;;;;;5053102;28;20131;-68
2022/05/23 08:57:17;;;;;;;8.27;4.32;;;;;;;;;;5055332;28;20049;-69
2022/05/23 08:59:46;;;;;;;8.88;4.15;;;;;;;;;;5060889;28;20079;-69
2022/05/23 09:02:23;;;;;;;9.23;5.20;;;;;;;;;;5056175;28;20044;-69
2022/05/23 09:05:04;;;;;;;11.15;5.55;;;;;;;;;;5059795;28;20049;-69
2022/05/23 09:07:36;;;;;;;10.25;4.60;;;;;;;;;;5049291;28;20051;-69
2022/05/23 09:10:05;;;;;;;11.55;4.57;;;;;;;;;;5060213;28;20047;-69
2022/05/23 09:12:31;;;;;;;9.23;5.22;;;;;;;;;;5074283;28;20052;-69
2022/05/23 09:14:58;;;;;;;10.60;4.93;;;;;;;;;;5059223;28;20544;-69
2022/05/23 09:17:28;;;;;;;10.98;4.80;;;;;;;;;;5067200;28;20123;-69
2022/05/23 09:20:05;;;;;;;9.90;4.72;;;;;;;;;;5064701;28;20159;-69
2022/05/23 09:22:32;;;;;;;;;;;;;;;;;;5047711;28;20045;-69
2022/05/23 09:24:59;;;;;;;9.55;4.93;;;;;;;;;;5059025;28;19940;-69
2022/05/23 09:27:33;;;;;;;10.53;3.77;;;;;;;;;;5064862;28;20412;-68
2022/05/23 09:29:59;;;;;;;7.25;3.40;;;;;;;;;;5064594;28;20059;-69
2022/05/23 09:32:33;;;;;;;5.20;3.25;;;;;;;;;;5058013;28;20052;-69
2022/05/23 09:35:02;;;;;;;7.70;3.78;;;;;;;;;;5053661;28;20117;-69
2022/05/23 09:37:48;;;;;;;7.93;4.15;;;;;;;;;;5055656;28;20040;-69
2022/05/23 09:40:25;;;;;;;8.38;3.90;;;;;;;;;;5062836;28;20480;-69
2022/05/23 09:49:09;;;;;;;8.60;4.20;;;;;;;;;;5048836;28;20522;-68
2022/05/23 09:51:54;;;;;;;6.70;3.80;;;;;;;;;;5063017;28;20059;-68
2022/05/23 09:54:41;;;;;;;8.85;3.67;;;;;;;;;;5058607;28;20159;-68
2022/05/23 09:57:15;;;;;;;9.53;4.70;;;;;;;;;;5042994;28;20048;-68
2022/05/23 09:59:42;;;;;;;8.65;4.50;;;;;;;;;;5074071;28;20160;-68
2022/05/23 10:02:15;;;;;;;10.27;3.50;;;;;;;;;;5071706;28;20150;-68
2022/05/23 10:04:44;;;;;;;7.35;3.92;;;;;;;;;;5057739;28;20783;-68
2022/05/23 10:07:30;;;;;;;6.78;3.25;;;;;;;;;;5064064;28;20080;-68
2022/05/23 10:09:58;;;;;;;8.50;3.90;;;;;;;;;;5061058;28;20131;-68
2022/05/23 10:12:25;;;;;;;10.07;4.20;;;;;;;;;;5059607;28;20575;-68
2022/05/23 10:14:52;;;;;;;8.45;3.88;;;;;;;;;;5058145;28;20052;-68
2022/05/23 10:17:29;;;;;;;8.43;4.05;;;;;;;;;;5054559;28;20052;-68
2022/05/23 10:20:16;;;;;;;13.07;4.68;;;;;;;;;;5063325;28;20838;-68
2022/05/23 10:22:53;;;;;;;7.22;3.70;;;;;;;;;;5043227;28;20060;-68
2022/05/23 10:25:20;;;;;;;6.90;4.13;;;;;;;;;;5063002;28;20171;-69
2022/05/23 10:27:50;;;;;;;9.32;4.70;;;;;;;;;;5051962;28;20389;-68
2022/05/23 10:30:18;;;;;;;9.93;3.75;;;;;;;;;;5059252;28;20133;-68
2022/05/23 10:32:51;;;;;;;15.70;5.40;;;;;;;;;;5059725;28;20044;-68
2022/05/23 10:35:28;;;;;;;9.38;4.97;;;;;;;;;;5055321;28;20055;-68
2022/05/23 10:42:07;;;;;;;10.13;4.75;;;;;;;;;;5043061;28;20048;-68
2022/05/23 10:43:29;;;;;;;9.33;5.40;;;;;;;;;;5032186;28;20045;-68
2022/05/23 10:45:57;;;;;;;10.85;4.72;;;;;;;;;;5053368;28;20472;-69
2022/05/23 10:48:38;;;;;;;10.95;4.63;;;;;;;;;;5059255;28;20052;-69
2022/05/23 10:51:16;;;;;;;7.95;4.20;;;;;;;;;;5056821;28;20048;-69
2022/05/23 10:53:42;;;;;;;10.32;4.95;;;;;;;;;;5055927;28;20061;-68
2022/05/23 10:56:15;;;;;;;8.23;4.93;;;;;;;;;;5053135;28;20139;-68
2022/05/23 10:58:43;;;;;;;12.30;5.43;;;;;;;;;;5066463;28;20044;-69
2022/05/23 11:01:17;;;;;;;10.27;6.38;;;;;;;;;;5070622;28;20072;-69
2022/05/23 11:03:49;;;;;;;11.43;5.40;;;;;;;;;;5049326;28;20048;-69
2022/05/23 11:06:24;;;;;;;11.23;5.30;;;;;;;;;;5063176;28;20142;-68
2022/05/23 11:09:01;;;;;;;10.13;5.25;;;;;;;;;;5067729;28;20713;-68
2022/05/23 11:11:34;;;;;;;12.13;5.25;;;;;;;;;;5055261;28;20147;-68
2022/05/23 11:14:15;;;;;;;10.38;4.68;;;;;;;;;;5056546;28;20048;-68
2022/05/23 11:16:55;;;;;;;12.43;5.38;;;;;;;;;;5062889;28;20052;-68
2022/05/23 11:19:31;;;;;;;11.35;5.32;;;;;;;;;;5055639;28;20052;-68
2022/05/23 11:22:05;;;;;;;9.60;5.43;;;;;;;;;;5062483;28;20083;-68
2022/05/23 11:24:38;;;;;;;14.50;5.45;;;;;;;;;;5054580;28;20167;-68
2022/05/23 11:35:41;;;;;;;12.07;4.65;;;;;;;;;;5051204;28;20105;-68
2022/05/23 11:38:08;;;;;;;7.80;3.75;;;;;;;;;;5031757;28;20873;-68
2022/05/23 11:40:38;;;;;;;11.33;3.90;;;;;;;;;;5046588;28;20598;-69
2022/05/23 11:43:15;;;;;;;6.93;3.22;;;;;;;;;;5055283;28;20048;-68
2022/05/23 11:48:34;;;;;;;8.95;2.97;;;;;;;;;;5054446;28;20063;-68
2022/05/23 11:51:20;;;;;;;5.72;2.35;;;;;;;;;;5059230;28;20052;-69
2022/05/23 11:53:55;;;;;;;8.50;3.03;;;;;;;;;;5051119;28;20052;-69
2022/05/23 11:56:31;;;;;;;6.47;2.67;;;;;;;;;;5061079;28;20057;-69
2022/05/23 11:58:58;;;;;;;9.27;2.67;;;;;;;;;;5055834;28;20131;-68
2022/05/23 12:01:26;;;;;;;5.88;2.67;;;;;;;;;;5060656;28;20146;-68
2022/05/23 12:03:54;;;;;;;10.68;3.00;;;;;;;;;;5060503;28;20135;-69
2022/05/23 12:06:24;;;;;;;8.07;2.53;;;;;;;;;;5048373;28;20056;-68
2022/05/23 12:09:05;;;;;;;6.57;2.97;;;;;;;;;;5058822;28;20529;-68
2022/05/23 12:11:32;;;;;;;10.73;2.97;;;;;;;;;;5054089;28;20435;-69
2022/05/23 12:14:16;;;;;;;8.57;2.70;;;;;;;;;;5060209;28;20503;-68
2022/05/23 12:17:05;;;;;;;6.47;3.28;;;;;;;;;;5044561;28;20066;-69
2022/05/23 12:19:41;;;;;;;5.63;3.20;;;;;;;;;;5051547;28;20151;-70
2022/05/23 12:22:18;;;;;;;6.63;3.20;;;;;;;;;;5053526;28;20052;-68
2022/05/23 12:24:44;;;;;;;;;;;;;;;;;;5061116;28;20146;-69
2022/05/23 12:27:32;;;;;;;11.48;3.40;;;;;;;;;;5053944;28;20007;-69
2022/05/23 12:30:17;;;;;;;8.65;3.35;;;;;;;;;;5060732;28;20131;-69
2022/05/23 12:33:00;;;;;;;11.43;3.50;;;;;;;;;;5052566;28;20055;-68
2022/05/23 12:35:29;;;;;;;6.63;2.80;;;;;;;;;;5054844;28;20045;-69
2022/05/23 12:38:01;;;;;;;5.40;2.60;;;;;;;;;;5061405;28;20427;-69
2022/05/23 12:40:31;;;;;;;6.97;2.67;;;;;;;;;;5064142;28;20040;-68
2022/05/23 12:43:22;;;;;;;6.82;2.80;;;;;;;;;;5060501;28;20060;-68
2022/05/23 12:46:01;;;;;;;6.72;2.63;;;;;;;;;;5049402;28;20044;-68
2022/05/23 12:48:33;;;;;;;7.75;3.03;;;;;;;;;;5053026;28;20045;-69
2022/05/23 12:51:18;;;;;;;7.80;2.70;;;;;;;;;;5053302;28;20139;-69
2022/05/23 12:54:10;;;;;;;7.15;3.10;;;;;;;;;;5065926;28;20139;-68
2022/05/23 12:56:36;;;;;;;6.40;3.08;;;;;;;;;;5035536;28;20063;-68
2022/05/23 12:59:04;;;;;;;;;;;;;;;;;;5053238;28;20052;-68
2022/05/23 13:01:32;;;;;;;6.07;2.42;;;;;;;;;;5050326;28;19939;-69
2022/05/23 13:03:58;;;;;;;;;;;;;;;;;;5057880;28;20044;-69
2022/05/23 13:06:29;;;;;;;9.10;3.35;;;;;;;;;;5060664;28;20322;-69
2022/05/23 13:09:06;;;;;;;7.63;2.90;;;;;;;;;;5055010;28;20525;-69
2022/05/23 13:11:38;;;;;;;12.65;3.45;;;;;;;;;;5059309;28;20798;-69
2022/05/23 13:14:04;;;;;;;8.93;3.13;;;;;;;;;;5050309;28;20223;-69
2022/05/23 13:16:33;;;;;;;5.70;3.25;;;;;;;;;;5055606;28;20048;-69
2022/05/23 13:22:05;;;;;;;8.75;3.35;;;;;;;;;;5053194;28;20060;-68
2022/05/23 13:24:53;;;;;;;7.90;3.40;;;;;;;;;;5052780;28;20076;-68
2022/05/23 13:27:19;;;;;;;;;;;;;;;;;;5069883;28;20417;-68
2022/05/23 13:29:49;;;;;;;8.98;2.72;;;;;;;;;;5051712;28;19974;-68
2022/05/23 13:32:17;;;;;;;7.15;2.78;;;;;;;;;;5055445;28;20055;-68
2022/05/23 13:34:44;;;;;;;8.18;2.70;;;;;;;;;;5065862;28;20093;-67
2022/05/23 13:37:23;;;;;;;5.28;2.17;;;;;;;;;;5051669;28;20097;-68
2022/05/23 13:39:50;;;;;;;6.72;2.55;;;;;;;;;;5058249;28;20769;-68
2022/05/23 13:42:20;;;;;;;11.32;2.53;;;;;;;;;;5050091;28;20128;-68
2022/05/23 13:44:48;;;;;;;5.45;2.47;;;;;;;;;;5057837;28;20057;-68
2022/05/23 13:47:18;;;;;;;9.93;3.00;;;;;;;;;;5048168;28;20045;-69
2022/05/23 13:50:10;;;;;;;6.63;2.65;;;;;;;;;;5070670;28;20048;-69
2022/05/23 13:52:59;;;;;;;4.90;2.50;;;;;;;;;;5051894;28;20128;-68
2022/05/23 13:55:30;;;;;;;6.30;2.33;;;;;;;;;;5055844;28;20063;-69
2022/05/23 13:58:03;;;;;;;8.68;2.90;;;;;;;;;;5049225;28;20117;-69
2022/05/23 14:00:36;;;;;;;6.30;2.97;;;;;;;;;;5063855;28;20075;-68
2022/05/23 14:03:05;;;;;;;11.70;3.45;;;;;;;;;;5058278;28;20056;-68
2022/05/23 14:05:34;;;;;;;12.85;3.75;;;;;;;;;;5057969;28;20138;-67
2022/05/23 14:08:02;;;;;;;6.30;3.50;;;;;;;;;;5063710;28;20080;-68
2022/05/23 14:10:28;;;;;;;9.80;3.80;;;;;;;;;;5052017;28;20064;-68
2022/05/23 14:12:56;;;;;;;7.53;3.90;;;;;;;;;;5060031;28;20139;-68
2022/05/23 14:15:24;;;;;;;10.10;3.83;;;;;;;;;;5061063;28;20136;-68
2022/05/23 14:17:51;;;;;;;8.18;3.58;;;;;;;;;;5059652;28;20139;-68
2022/05/23 14:20:29;;;;;;;9.77;4.23;;;;;;;;;;5063775;28;20052;-68
2022/05/23 14:23:01;;;;;;;13.95;4.30;;;;;;;;;;5053232;28;20063;-68
2022/05/23 14:25:47;;;;;;;10.13;4.38;;;;;;;;;;5070005;28;20139;-68
2022/05/23 14:28:16;;;;;;;11.23;5.10;;;;;;;;;;5035063;28;20071;-68
2022/05/23 14:30:44;;;;;;;9.05;4.15;;;;;;;;;;5056693;28;20048;-67
2022/05/23 14:33:19;;;;;;;8.70;4.20;;;;;;;;;;5058011;28;20188;-67
2022/05/23 14:35:58;;;;;;;7.65;3.92;;;;;;;;;;5056974;28;20051;-67
2022/05/23 14:38:27;;;;;;;8.15;4.30;;;;;;;;;;5053514;28;20079;-67
2022/05/23 14:40:54;;;;;;;7.88;3.50;;;;;;;;;;5057409;28;20073;-67
2022/05/23 14:43:27;;;;;;;9.50;4.43;;;;;;;;;;5063076;28;20056;-67
2022/05/23 14:45:53;;;;;;;7.68;3.75;;;;;;;;;;5064136;28;20059;-67
2022/05/23 14:48:23;;;;;;;10.23;3.80;;;;;;;;;;5062721;28;20576;-67
2022/05/23 14:50:52;;;;;;;10.00;4.13;;;;;;;;;;5052973;28;20106;-67
2022/05/23 14:56:22;;;;;;;8.10;3.58;;;;;;;;;;5060822;28;20131;-67
2022/05/23 15:01:39;;;;;;;7.45;3.63;;;;;;;;;;5044190;28;20131;-67
2022/05/23 15:04:06;;;;;;;9.93;4.15;;;;;;;;;;5061966;28;20040;-67
2022/05/23 15:06:33;;;;;;;8.45;4.15;;;;;;;;;;5055952;28;20524;-67
2022/05/23 15:08:59;;;;;;;5.75;3.78;;;;;;;;;;5053586;28;20106;-67
2022/05/23 15:11:27;;;;;;;8.27;3.88;;;;;;;;;;5061847;28;20095;-67
2022/05/23 15:13:54;;;;;;;;;;;;;;;;;;5057072;28;20156;-67
2022/05/23 15:16:25;;;;;;;9.85;4.60;;;;;;;;;;5074387;28;20346;-67
2022/05/23 15:18:51;;;;;;;8.77;4.25;;;;;;;;;;5052896;28;20052;-67
2022/05/23 15:21:18;;;;;;;8.55;4.30;;;;;;;;;;5056771;28;20656;-67
2022/05/23 15:23:44;;;;;;;9.27;4.65;;;;;;;;;;5061162;28;20071;-67
2022/05/23 15:26:13;;;;;;;7.18;3.83;;;;;;;;;;5057403;28;20045;-67
2022/05/23 15:28:39;;;;;;;7.55;3.40;;;;;;;;;;5063942;28;20045;-68
2022/05/23 15:31:06;;;;;;;9.52;4.55;;;;;;;;;;5039619;28;20072;-68
2022/05/23 15:33:32;;;;;;;6.70;4.33;;;;;;;;;;5058888;28;20051;-67
2022/05/23 15:35:59;;;;;;;11.40;4.90;;;;;;;;;;5046422;28;20601;-68
2022/05/23 15:38:25;;;;;;;14.55;5.38;;;;;;;;;;5061740;28;20129;-68
2022/05/23 15:40:54;;;;;;;13.10;5.43;;;;;;;;;;5060016;28;20048;-68
2022/05/23 15:43:20;;;;;;;12.20;5.18;;;;;;;;;;5055692;28;20052;-68
2022/05/23 15:45:48;;;;;;;10.13;4.97;;;;;;;;;;5061442;28;20497;-67
2022/05/23 15:48:16;;;;;;;10.07;5.57;;;;;;;;;;5052173;28;20060;-68
2022/05/23 15:50:45;;;;;;;12.45;5.22;;;;;;;;;;5057907;28;20131;-68
2022/05/23 15:53:12;;;;;;;12.27;5.90;;;;;;;;;;5056404;28;20130;-68
2022/05/23 15:55:44;;;;;;;9.40;5.67;;;;;;;;;;5061389;28;20041;-68
2022/05/23 15:58:12;;;;;;;9.80;5.95;;;;;;;;;;5060337;28;20286;-68
2022/05/23 16:00:39;;;;;;;10.27;5.40;;;;;;;;;;5053941;28;20084;-68
2022/05/23 16:03:08;;;;;;;11.10;5.90;;;;;;;;;;5060895;28;20452;-67
2022/05/23 16:05:36;;;;;;;9.15;5.13;;;;;;;;;;5053947;28;20153;-67